Latest Weather Observations for Albion Park

IDN60801

Issued at 10:35 pm EDT Wednesday 22 October 2014 (issued every 30 minutes, with the page automatically refreshed every 10 minutes)

About weather observations | Map of weather stations | Latest weather observations for NSW | Other Formats
Station Details ID: 068241 Name: WOLLONGONG AIRPORT Lat: -34.56 Lon: 150.79 Height: 8.0 m
Data from the previous 72 hours. | See also: Recent months at Albion Park
Date/Time
EDT
Temp
°C
App
Temp
°C
Dew
Point
Rel
Hum
%
Delta-T
°C
Wind Press
QNH
hPa
Press
MSL
hPa
Rain
since 9 am
mm
Dir
 
Spd
km/h
Gust
km/h
Spd
kts
Gust
kts
22/10:30pm 14.0 13.6 13.1 94 0.5 WNW 7 9 4 5 1020.4 1020.4 0.0
22/10:00pm 14.2 15.1 12.9 92 0.7 W 0 0 0 0 1020.3 1020.3 0.0
22/09:30pm 14.6 14.2 13.1 91 0.8 WNW 7 9 4 5 1020.3 1020.3 0.0
22/09:00pm 15.0 15.6 13.2 89 1.0 WNW 2 9 1 5 1020.2 1020.2 0.0
22/08:30pm 15.9 16.5 13.0 83 1.6 NW 2 7 1 4 1019.9 1019.9 0.0
22/08:00pm 17.8 17.8 13.7 77 2.3 NNW 6 9 3 5 1019.6 1019.6 0.0
22/07:30pm 18.6 17.4 14.1 75 2.6 NNE 13 19 7 10 1019.5 1019.5 0.0
22/07:00pm 19.0 17.0 13.8 72 3.0 NNE 17 24 9 13 1019.4 1019.4 0.0
22/06:30pm 19.4 16.7 13.6 69 3.3 NNE 20 32 11 17 1019.4 1019.4 0.0
22/06:00pm 19.8 16.3 13.5 67 3.6 NNE 24 35 13 19 1019.5 1019.5 0.0
22/05:30pm 20.2 17.3 13.9 67 3.6 NE 22 33 12 18 1019.7 1019.7 0.0
22/05:00pm 20.5 17.9 13.9 66 3.8 NE 20 37 11 20 1019.9 1019.9 0.0
22/04:30pm 20.6 17.2 13.8 65 3.9 NE 24 37 13 20 1020.0 1020.0 0.0
22/04:00pm 20.7 16.9 13.6 64 4.1 NE 26 37 14 20 1020.2 1020.2 0.0
22/03:30pm 20.4 15.7 13.1 63 4.2 NE 30 43 16 23 1020.4 1020.4 0.0
22/03:00pm 20.8 16.6 13.5 63 4.2 NE 28 39 15 21 1020.8 1020.8 0.0
22/02:30pm 20.4 14.8 13.4 64 4.0 NE 35 46 19 25 1021.2 1021.2 0.0
22/02:00pm 20.5 16.0 13.7 65 3.9 NE 30 41 16 22 1022.0 1022.0 0.0
22/01:30pm 21.1 17.1 14.0 64 4.1 NE 28 35 15 19 1022.5 1022.5 0.0
22/01:09pm 21.3 15.5 12.7 58 4.9 ENE 35 43 19 23 1022.8 1022.8 0.0
22/01:00pm 22.7 20.1 10.8 47 6.5 N 15 24 8 13 1023.0 1023.0 0.0
22/12:30pm 21.7 17.4 9.3 45 6.6 N 22 32 12 17 1023.6 1023.6 0.0
22/12:00pm 21.2 16.8 9.1 46 6.4 N 22 32 12 17 1024.3 1024.3 0.0
22/11:30am 21.0 16.7 9.3 47 6.2 N 22 32 12 17 1024.9 1024.9 0.0
22/11:00am 20.7 16.9 9.0 47 6.2 N 19 35 10 19 1025.4 1025.4 0.0
22/10:30am 19.6 15.6 8.9 50 5.6 N 20 30 11 16 1025.8 1025.8 0.0
22/10:00am 18.9 14.4 8.6 51 5.3 N 22 35 12 19 1026.2 1026.2 0.0
22/09:30am 18.3 13.3 8.0 51 5.3 N 24 35 13 19 1026.4 1026.4 0.0
22/09:00am 17.5 13.3 8.1 54 4.8 N 20 28 11 15 1026.6 1026.6 0.0
22/08:30am 17.2 12.7 8.4 56 4.5 N 22 32 12 17 1026.9 1026.9 0.0
22/08:00am 15.9 13.4 9.6 66 3.3 NNW 13 17 7 9 1027.1 1027.1 0.0
22/07:30am 14.5 12.9 10.1 75 2.3 NNW 9 15 5 8 1027.2 1027.2 0.0
22/07:00am 13.3 12.0 11.2 87 1.1 NW 9 9 5 5 1027.3 1027.3 0.0
22/06:30am 12.1 10.7 11.0 93 0.6 NW 9 11 5 6 1027.2 1027.2 0.0
22/06:00am 11.5 9.5 10.1 91 0.7 W 11 15 6 8 1027.1 1027.1 0.0
22/05:30am 12.2 12.5 10.9 92 0.7 CALM 0 0 0 0 1027.1 1027.1 0.0
22/05:00am 12.2 12.6 11.1 93 0.6 CALM 0 0 0 0 1027.1 1027.1 0.0
22/04:30am 11.9 12.2 10.8 93 0.6 CALM 0 0 0 0 1027.4 1027.4 0.0
22/04:00am 11.7 10.8 10.6 93 0.6 W 6 9 3 5 1027.6 1027.6 0.0
22/03:30am 11.3 10.1 10.2 93 0.6 W 7 9 4 5 1027.9 1027.9 0.0
22/03:00am 11.4 11.5 10.1 92 0.7 CALM 0 0 0 0 1028.3 1028.3 0.0
22/02:30am 11.9 12.0 10.3 90 0.8 CALM 0 0 0 0 1028.6 1028.6 0.0
22/02:00am 12.9 13.1 10.6 86 1.2 CALM 0 0 0 0 1028.9 1028.9 0.0
22/01:30am 13.8 13.3 10.8 82 1.6 W 4 7 2 4 1029.3 1029.3 0.0
22/01:00am 14.1 13.8 11.4 84 1.4 W 4 6 2 3 1029.9 1029.9 0.0
22/12:30am 14.9 13.8 10.7 76 2.2 NNW 7 9 4 5 1030.5 1030.5 0.0
22/12:00am 14.8 14.4 11.0 78 2.0 NW 4 7 2 4 1030.8 1030.8 0.0
 
Date/Time
EDT
Temp
°C
App
Temp
°C
Dew
Point
Rel
Hum
%
Delta-T
°C
Wind Press
QNH
hPa
Press
MSL
hPa
Rain
since 9 am
mm
Dir
 
Spd
km/h
Gust
km/h
Spd
kts
Gust
kts
21/11:30pm 14.2 13.8 11.2 82 1.6 W 4 7 2 4 1030.9 1030.9 0.0
21/11:00pm 14.2 13.5 11.5 84 1.4 W 6 7 3 4 1031.1 1031.1 0.0
21/10:30pm 14.2 13.3 11.4 83 1.5 W 7 11 4 6 1031.3 1031.3 0.0
21/10:00pm 14.3 13.6 11.5 83 1.5 W 6 7 3 4 1031.3 1031.3 0.0
21/09:30pm 14.5 13.6 11.3 81 1.7 WNW 7 9 4 5 1031.3 1031.3 0.0
21/09:00pm 14.7 12.9 10.9 78 2.0 W 11 11 6 6 1031.2 1031.2 0.0
21/08:30pm 15.4 15.6 10.6 73 2.5 CALM 0 6 0 3 1031.0 1031.0 0.0
21/08:00pm 16.6 14.0 9.3 62 3.8 NNE 13 15 7 8 1030.7 1030.7 0.0
21/07:30pm 16.6 14.0 9.5 63 3.7 NE 13 19 7 10 1030.5 1030.5 0.0
21/07:00pm 16.7 14.2 8.4 58 4.2 NNE 11 15 6 8 1030.3 1030.3 0.0
21/06:30pm 16.7 14.6 8.4 58 4.2 NE 9 15 5 8 1030.3 1030.3 0.0
21/06:00pm 16.7 13.9 8.4 58 4.2 ENE 13 17 7 9 1030.2 1030.2 0.0
21/05:30pm 16.8 13.9 8.2 57 4.4 ENE 13 19 7 10 1030.3 1030.3 0.0
21/05:00pm 16.8 14.2 7.7 55 4.5 NE 11 17 6 9 1030.4 1030.4 0.0
21/04:30pm 17.2 14.4 8.4 56 4.5 ENE 13 17 7 9 1030.4 1030.4 0.0
21/04:00pm 17.1 13.9 8.5 57 4.4 E 15 19 8 10 1030.5 1030.5 0.0
21/03:30pm 17.0 14.2 8.7 58 4.3 ENE 13 20 7 11 1030.8 1030.8 0.0
21/03:00pm 17.1 14.0 8.8 58 4.2 ENE 15 22 8 12 1031.1 1031.1 0.0
21/02:30pm 17.3 14.5 8.7 57 4.4 ENE 13 19 7 10 1031.3 1031.3 0.0
21/02:00pm 17.2 14.5 8.9 58 4.3 NE 13 19 7 10 1031.8 1031.8 0.0
21/01:30pm 17.0 14.3 8.9 59 4.2 NE 13 19 7 10 1032.3 1032.3 0.0
21/01:00pm 16.9 14.5 8.6 58 4.2 NE 11 17 6 9 1032.6 1032.6 0.0
21/12:30pm 16.6 13.5 8.8 60 4.0 ENE 15 20 8 11 1032.8 1032.8 0.0
21/12:00pm 16.7 13.8 9.6 63 3.7 NNE 15 20 8 11 1033.1 1033.1 0.0
21/11:30am 16.8 14.5 9.0 60 4.0 NNE 11 15 6 8 1033.2 1033.2 0.0
21/11:00am 16.7 14.4 9.1 61 3.9 ENE 11 17 6 9 1033.4 1033.4 0.0
21/10:30am 16.5 15.1 9.4 63 3.7 NNE 7 11 4 6 1033.4 1033.4 0.0
21/10:00am 16.1 15.0 9.8 66 3.3 WNW 6 11 3 6 1033.5 1033.5 0.0
21/09:30am 15.9 14.2 11.1 73 2.6 WNW 11 13 6 7 1033.3 1033.3 0.0
21/09:00am 15.5 14.3 11.5 77 2.1 WNW 9 11 5 6 1033.2 1033.2 0.0
21/08:30am 14.8 13.6 11.6 81 1.7 NW 9 11 5 6 1032.9 1032.9 0.0
21/08:00am 15.2 14.6 11.8 80 1.8 SW 6 7 3 4 1032.8 1032.8 0.0
21/07:30am 14.2 13.3 10.6 79 1.9 SW 6 9 3 5 1032.3 1032.3 0.0
21/07:00am 13.7 13.9 10.7 82 1.6 CALM 0 0 0 0 1032.2 1032.2 0.0
21/06:30am 13.5 13.7 10.7 83 1.5 CALM 0 6 0 3 1031.9 1031.9 0.0
21/06:00am 13.3 12.5 11.2 87 1.1 SW 6 7 3 4 1031.5 1031.5 0.0
21/05:30am 13.2 12.7 10.9 86 1.2 SW 4 9 2 5 1031.5 1031.5 0.0
21/05:00am 13.3 12.4 11.5 89 0.9 SW 7 9 4 5 1031.4 1031.4 0.0
21/04:30am 13.5 11.7 10.7 83 1.5 SW 11 13 6 7 1031.4 1031.4 0.0
21/04:00am 13.3 12.7 11.7 90 0.8 WSW 6 7 3 4 1031.6 1031.6 0.0
21/03:30am 13.1 12.3 11.8 92 0.7 W 7 9 4 5 1031.7 1031.7 0.0
21/03:00am 13.3 11.8 12.0 92 0.7 W 11 13 6 7 1031.8 1031.8 0.0
21/02:30am 13.5 12.8 12.1 91 0.8 WSW 7 11 4 6 1032.0 1032.0 0.0
21/02:00am 13.6 12.9 12.0 90 0.9 S 7 7 4 4 1032.2 1032.2 0.0
21/01:30am 13.7 13.2 11.9 89 1.0 S 6 7 3 4 1032.2 1032.2 0.0
21/01:00am 13.7 12.6 12.1 90 0.9 S 9 11 5 6 1032.4 1032.4 0.0
21/12:30am 13.7 12.9 11.7 88 1.1 S 7 9 4 5 1032.6 1032.6 0.0
21/12:00am 14.1 12.6 11.8 86 1.2 S 11 15 6 8 1032.6 1032.6 0.0
 
Date/Time
EDT
Temp
°C
App
Temp
°C
Dew
Point
Rel
Hum
%
Delta-T
°C
Wind Press
QNH
hPa
Press
MSL
hPa
Rain
since 9 am
mm
Dir
 
Spd
km/h
Gust
km/h
Spd
kts
Gust
kts
20/11:30pm 14.1 13.2 11.3 83 1.5 SSW 7 11 4 6 1032.7 1032.7 0.0
20/11:07pm 14.3 13.6 11.3 82 1.6 SSW 6 7 3 4 1032.6 1032.6 0.0
20/11:00pm 14.3 13.6 11.3 82 1.6 SSW 6 7 3 4 1032.7 1032.7 0.0
20/10:52pm 14.4 13.7 11.4 82 1.6 SSW 6 9 3 5 1032.7 1032.7 0.0
20/10:30pm 14.5 13.6 11.3 81 1.7 SSW 7 11 4 6 1032.6 1032.6 0.0
20/10:00pm 14.7 13.4 11.1 79 1.9 S 9 13 5 7 1032.6 1032.6 0.0
20/09:30pm 14.6 13.3 11.2 80 1.8 S 9 13 5 7 1032.4 1032.4 0.0
20/09:00pm 14.7 12.6 11.3 80 1.8 S 13 17 7 9 1032.4 1032.4 0.0
20/08:30pm 14.8 13.5 11.4 80 1.8 S 9 13 5 7 1032.2 1032.2 0.0
20/08:00pm 14.7 13.9 11.8 83 1.5 SSW 7 11 4 6 1031.8 1031.8 0.0
20/07:30pm 14.7 12.8 11.7 82 1.6 S 13 19 7 10 1031.6 1031.6 0.0
20/07:00pm 15.0 11.6 11.2 78 2.0 S 20 32 11 17 1031.3 1031.3 0.0
20/06:30pm 16.2 13.7 9.6 65 3.4 S 13 17 7 9 1031.0 1031.0 0.0
20/06:00pm 16.4 14.0 8.6 60 4.0 S 11 19 6 10 1030.9 1030.9 0.0
20/05:30pm 16.6 13.7 9.5 63 3.7 S 15 20 8 11 1030.9 1030.9 0.0
20/05:00pm 16.3 13.1 8.3 59 4.0 S 15 22 8 12 1030.9 1030.9 0.0
20/04:30pm 16.3 12.7 10.4 68 3.1 S 20 28 11 15 1030.9 1030.9 0.0
20/04:00pm 16.0 12.0 10.5 70 2.9 S 22 30 12 16 1030.9 1030.9 0.0
20/03:30pm 16.6 13.5 10.2 66 3.4 S 17 28 9 15 1030.8 1030.8 0.0
20/03:00pm 16.8 13.2 10.4 66 3.4 S 20 32 11 17 1030.7 1030.7 0.0
20/02:30pm 17.3 14.6 11.6 69 3.1 SSW 17 22 9 12 1030.7 1030.7 0.0
20/02:00pm 17.0 13.7 11.7 71 2.9 S 20 32 11 17 1030.9 1030.9 0.0
20/01:30pm 16.8 14.0 12.7 77 2.3 S 19 28 10 15 1031.1 1031.1 0.0
20/01:08pm 16.0 13.3 12.9 82 1.7 S 19 35 10 19 1031.2 1031.2 0.0
20/01:00pm 15.7 13.3 13.9 89 1.0 S 19 32 10 17 1031.2 1031.2 0.0
20/12:52pm 15.4 11.8 13.2 87 1.2 SSE 24 33 13 18 1031.3 1031.3 0.0
20/12:40pm 16.1 12.8 12.7 80 1.9 S 22 33 12 18 1031.2 1031.2 0.0
20/12:30pm 15.6 12.4 13.1 85 1.4 S 22 35 12 19 1031.3 1031.3 0.0
20/12:20pm 16.2 12.9 13.9 86 1.3 S 24 35 13 19 1031.4 1031.4 0.0
20/12:17pm 16.2 12.8 13.7 85 1.4 S 24 35 13 19 1031.4 1031.4 0.0
20/12:03pm 15.6 12.5 13.4 87 1.2 SSE 22 33 12 18 1031.4 1031.4 0.0
20/12:00pm 15.7 13.0 13.5 87 1.2 SSE 20 32 11 17 1031.4 1031.4 0.0
20/11:51am 15.6 12.5 13.3 86 1.3 S 22 28 12 15 1031.4 1031.4 0.0
20/11:35am 15.8 12.1 13.8 88 1.1 SSE 26 43 14 23 1031.5 1031.5 0.0
20/11:30am 16.1 12.5 13.0 82 1.7 SSE 24 37 13 20 1031.4 1031.4 0.0
20/11:00am 17.6 14.2 11.4 67 3.3 S 20 32 11 17 1031.1 1031.1 0.0
20/10:30am 17.0 12.9 11.3 69 3.1 S 24 35 13 19 1031.2 1031.2 0.0
20/10:00am 17.1 12.2 11.4 69 3.1 S 28 41 15 22 1030.9 1030.9 0.0
20/09:30am 16.8 13.0 11.1 69 3.1 S 22 37 12 20 1030.5 1030.5 0.0
20/09:00am 16.8 11.7 10.6 67 3.3 S 28 50 15 27 1029.9 1029.9 0.0
20/08:30am 16.3 12.8 12.1 76 2.3 S 22 43 12 23 1029.4 1029.4 0.0
20/08:00am 17.3 12.8 11.3 68 3.2 S 26 41 14 22 1028.9 1028.9 0.0
20/07:30am 17.1 13.8 11.6 70 3.0 S 20 33 11 18 1028.2 1028.2 0.0
20/07:00am 17.2 13.9 11.7 70 3.0 SSE 20 35 11 19 1027.7 1027.7 0.0
20/06:30am 17.2 13.7 12.3 73 2.7 S 22 33 12 18 1027.0 1027.0 0.0
20/06:00am 17.0 13.2 12.3 74 2.6 S 24 33 13 18 1026.3 1026.3 0.0
20/05:45am 17.3 13.7 13.0 76 2.4 S 24 41 13 22 1026.0 1026.0 0.0
20/05:30am 17.4 13.8 13.1 76 2.4 SSE 24 43 13 23 1025.7 1025.7 0.0
20/05:09am 17.5 12.7 14.0 80 2.0 S 32 50 17 27 1024.7 1024.7 0.0
20/05:01am 17.9 13.9 14.2 79 2.1 SSE 28 43 15 23 1024.6 1024.6 0.0
20/05:00am 18.0 14.1 14.3 79 2.1 SSE 28 41 15 22 1024.6 1024.6 0.0
20/04:33am 19.4 13.4 13.3 68 3.5 S 37 56 20 30 1023.2 1023.2 0.0
20/04:30am 20.0 12.7 12.7 63 4.1 S 43 56 23 30 1023.0 1023.0 0.0
20/04:26am 20.5 13.1 12.5 60 4.5 S 43 56 23 30 1022.4 1022.4 0.0
20/04:23am 19.6 18.1 13.1 66 3.7 SSE 13 33 7 18 1021.9 1021.9 0.0
20/04:00am 14.6 14.6 13.5 93 0.6 SSE 6 11 3 6 1020.4 1020.4 0.0
20/03:30am 14.9 14.6 14.4 97 0.3 SW 9 11 5 6 1020.3 1020.3 0.0
20/03:00am 13.8 13.6 13.6 99 0.1 WSW 7 20 4 11 1020.3 1020.3 0.0
20/02:30am 13.5 13.4 13.3 99 0.1 SW 6 11 3 6 1021.0 1021.0 0.0
20/02:00am 12.6 12.0 12.3 98 0.2 SW 7 11 4 6 1021.1 1021.1 0.0
20/01:30am 13.1 12.9 12.9 99 0.1 SW 6 11 3 6 1021.4 1021.4 0.0
20/01:00am 13.1 13.6 12.9 99 0.1 W 2 7 1 4 1021.3 1021.3 0.0
20/12:30am 12.2 11.4 11.6 96 0.3 W 7 11 4 6 1021.7 1021.7 0.0
20/12:00am 13.9 14.2 13.3 96 0.3 NW 4 7 2 4 1021.9 1021.9 0.0
 
Date/Time
EDT
Temp
°C
App
Temp
°C
Dew
Point
Rel
Hum
%
Delta-T
°C
Wind Press
QNH
hPa
Press
MSL
hPa
Rain
since 9 am
mm
Dir
 
Spd
km/h
Gust
km/h
Spd
kts
Gust
kts
19/11:30pm 14.7 15.7 14.2 97 0.3 W 2 7 1 4 1022.4 1022.4 0.0
19/11:00pm 14.9 16.2 14.1 95 0.4 CALM 0 0 0 0 1022.4 1022.4 0.0

Other Formats:

Comma delimited format used in spreadsheet applications
http://www.bom.gov.au/fwo/IDN60801/IDN60801.95748.axf

JavaScript Object Notation format (JSON) in row-major order
http://www.bom.gov.au/fwo/IDN60801/IDN60801.95748.json